sensor_id;sensor_type;location;lat;lon;timestamp;P1;durP1;ratioP1;P2;durP2;ratioP2
58338;SDS011;68636;52.704;6.536;2023-06-04T00:00:41;5.03;;;1.60;;
58338;SDS011;68636;52.704;6.536;2023-06-04T00:03:07;4.90;;;1.58;;
58338;SDS011;68636;52.704;6.536;2023-06-04T00:05:33;6.22;;;1.73;;
58338;SDS011;68636;52.704;6.536;2023-06-04T00:07:59;5.88;;;1.75;;
58338;SDS011;68636;52.704;6.536;2023-06-04T00:10:25;8.20;;;2.05;;
58338;SDS011;68636;52.704;6.536;2023-06-04T00:12:50;6.53;;;1.80;;
58338;SDS011;68636;52.704;6.536;2023-06-04T00:15:16;8.07;;;2.10;;
58338;SDS011;68636;52.704;6.536;2023-06-04T00:17:42;6.50;;;2.03;;
58338;SDS011;68636;52.704;6.536;2023-06-04T00:20:08;6.35;;;2.25;;
58338;SDS011;68636;52.704;6.536;2023-06-04T00:22:35;7.38;;;2.10;;
58338;SDS011;68636;52.704;6.536;2023-06-04T00:25:01;6.70;;;2.03;;
58338;SDS011;68636;52.704;6.536;2023-06-04T00:27:26;7.43;;;2.08;;
58338;SDS011;68636;52.704;6.536;2023-06-04T00:29:52;5.50;;;2.20;;
58338;SDS011;68636;52.704;6.536;2023-06-04T00:32:18;10.23;;;2.53;;
58338;SDS011;68636;52.704;6.536;2023-06-04T00:34:50;8.57;;;2.43;;
58338;SDS011;68636;52.704;6.536;2023-06-04T00:37:16;11.77;;;2.30;;
58338;SDS011;68636;52.704;6.536;2023-06-04T00:39:42;8.40;;;2.35;;
58338;SDS011;68636;52.704;6.536;2023-06-04T00:42:08;6.55;;;2.60;;
58338;SDS011;68636;52.704;6.536;2023-06-04T00:44:33;9.90;;;2.80;;
58338;SDS011;68636;52.704;6.536;2023-06-04T00:47:01;6.22;;;2.45;;
58338;SDS011;68636;52.704;6.536;2023-06-04T00:49:27;6.68;;;2.33;;
58338;SDS011;68636;52.704;6.536;2023-06-04T00:51:53;11.18;;;2.78;;
58338;SDS011;68636;52.704;6.536;2023-06-04T00:54:19;10.98;;;2.70;;
58338;SDS011;68636;52.704;6.536;2023-06-04T00:56:45;6.60;;;2.47;;
58338;SDS011;68636;52.704;6.536;2023-06-04T00:59:13;8.00;;;2.63;;
58338;SDS011;68636;52.704;6.536;2023-06-04T01:01:42;7.80;;;2.42;;
58338;SDS011;68636;52.704;6.536;2023-06-04T01:04:20;11.23;;;2.85;;
58338;SDS011;68636;52.704;6.536;2023-06-04T01:06:54;8.95;;;3.08;;
58338;SDS011;68636;52.704;6.536;2023-06-04T01:09:24;7.72;;;2.67;;
58338;SDS011;68636;52.704;6.536;2023-06-04T01:11:51;8.02;;;2.60;;
58338;SDS011;68636;52.704;6.536;2023-06-04T01:14:17;8.15;;;2.28;;
58338;SDS011;68636;52.704;6.536;2023-06-04T01:25:04;7.75;;;2.63;;
58338;SDS011;68636;52.704;6.536;2023-06-04T01:27:34;10.40;;;2.65;;
58338;SDS011;68636;52.704;6.536;2023-06-04T01:30:01;9.75;;;2.83;;
58338;SDS011;68636;52.704;6.536;2023-06-04T01:32:28;6.75;;;2.72;;
58338;SDS011;68636;52.704;6.536;2023-06-04T01:34:55;11.32;;;3.35;;
58338;SDS011;68636;52.704;6.536;2023-06-04T01:37:21;9.68;;;2.80;;
58338;SDS011;68636;52.704;6.536;2023-06-04T01:39:46;12.40;;;3.35;;
58338;SDS011;68636;52.704;6.536;2023-06-04T01:42:12;7.60;;;2.70;;
58338;SDS011;68636;52.704;6.536;2023-06-04T01:44:38;9.40;;;2.95;;
58338;SDS011;68636;52.704;6.536;2023-06-04T01:47:04;9.05;;;3.00;;
58338;SDS011;68636;52.704;6.536;2023-06-04T01:49:29;7.95;;;3.05;;
58338;SDS011;68636;52.704;6.536;2023-06-04T01:51:55;9.00;;;2.72;;
58338;SDS011;68636;52.704;6.536;2023-06-04T01:54:21;11.52;;;3.42;;
58338;SDS011;68636;52.704;6.536;2023-06-04T01:56:47;11.40;;;3.53;;
58338;SDS011;68636;52.704;6.536;2023-06-04T01:59:19;8.88;;;3.13;;
58338;SDS011;68636;52.704;6.536;2023-06-04T02:01:46;12.23;;;3.05;;
58338;SDS011;68636;52.704;6.536;2023-06-04T02:04:13;9.15;;;3.38;;
58338;SDS011;68636;52.704;6.536;2023-06-04T02:06:38;9.80;;;3.22;;
58338;SDS011;68636;52.704;6.536;2023-06-04T02:09:04;14.07;;;3.65;;
58338;SDS011;68636;52.704;6.536;2023-06-04T02:11:31;12.13;;;3.30;;
58338;SDS011;68636;52.704;6.536;2023-06-04T02:13:57;6.75;;;3.10;;
58338;SDS011;68636;52.704;6.536;2023-06-04T02:16:23;12.07;;;3.30;;
58338;SDS011;68636;52.704;6.536;2023-06-04T02:18:49;15.65;;;3.78;;
58338;SDS011;68636;52.704;6.536;2023-06-04T02:21:15;8.65;;;3.58;;
58338;SDS011;68636;52.704;6.536;2023-06-04T02:23:40;12.90;;;3.92;;
58338;SDS011;68636;52.704;6.536;2023-06-04T02:26:06;12.10;;;4.10;;
58338;SDS011;68636;52.704;6.536;2023-06-04T02:28:32;9.98;;;3.55;;
58338;SDS011;68636;52.704;6.536;2023-06-04T02:30:57;12.23;;;4.13;;
58338;SDS011;68636;52.704;6.536;2023-06-04T02:33:23;14.10;;;3.88;;
58338;SDS011;68636;52.704;6.536;2023-06-04T02:35:49;14.63;;;4.85;;
58338;SDS011;68636;52.704;6.536;2023-06-04T02:38:15;15.65;;;5.15;;
58338;SDS011;68636;52.704;6.536;2023-06-04T02:40:41;12.73;;;5.05;;
58338;SDS011;68636;52.704;6.536;2023-06-04T02:43:07;12.00;;;4.70;;
58338;SDS011;68636;52.704;6.536;2023-06-04T02:45:33;16.65;;;4.20;;
58338;SDS011;68636;52.704;6.536;2023-06-04T02:47:59;10.82;;;3.78;;
58338;SDS011;68636;52.704;6.536;2023-06-04T02:50:25;15.82;;;4.50;;
58338;SDS011;68636;52.704;6.536;2023-06-04T02:52:50;10.05;;;3.83;;
58338;SDS011;68636;52.704;6.536;2023-06-04T02:55:17;16.88;;;5.65;;
58338;SDS011;68636;52.704;6.536;2023-06-04T02:57:42;13.13;;;4.95;;
58338;SDS011;68636;52.704;6.536;2023-06-04T03:00:12;14.75;;;4.70;;
58338;SDS011;68636;52.704;6.536;2023-06-04T03:02:43;17.58;;;5.07;;
58338;SDS011;68636;52.704;6.536;2023-06-04T03:05:11;16.10;;;5.10;;
58338;SDS011;68636;52.704;6.536;2023-06-04T03:07:42;15.40;;;5.15;;
58338;SDS011;68636;52.704;6.536;2023-06-04T03:10:10;16.38;;;5.03;;
58338;SDS011;68636;52.704;6.536;2023-06-04T03:15:02;22.07;;;5.83;;
58338;SDS011;68636;52.704;6.536;2023-06-04T03:17:29;18.75;;;5.10;;
58338;SDS011;68636;52.704;6.536;2023-06-04T03:19:56;15.30;;;5.82;;
58338;SDS011;68636;52.704;6.536;2023-06-04T03:22:22;18.30;;;5.82;;
58338;SDS011;68636;52.704;6.536;2023-06-04T03:24:48;14.98;;;5.60;;
58338;SDS011;68636;52.704;6.536;2023-06-04T03:27:14;18.75;;;6.35;;
58338;SDS011;68636;52.704;6.536;2023-06-04T03:29:40;19.27;;;6.38;;
58338;SDS011;68636;52.704;6.536;2023-06-04T03:32:06;22.25;;;6.93;;
58338;SDS011;68636;52.704;6.536;2023-06-04T03:34:32;17.55;;;6.82;;
58338;SDS011;68636;52.704;6.536;2023-06-04T03:36:58;19.42;;;6.38;;
58338;SDS011;68636;52.704;6.536;2023-06-04T03:39:24;22.17;;;6.78;;
58338;SDS011;68636;52.704;6.536;2023-06-04T03:41:50;22.10;;;7.07;;
58338;SDS011;68636;52.704;6.536;2023-06-04T03:44:16;20.70;;;6.70;;
58338;SDS011;68636;52.704;6.536;2023-06-04T03:46:43;23.50;;;7.10;;
58338;SDS011;68636;52.704;6.536;2023-06-04T03:49:09;24.38;;;7.75;;
58338;SDS011;68636;52.704;6.536;2023-06-04T03:51:36;21.85;;;7.72;;
58338;SDS011;68636;52.704;6.536;2023-06-04T03:54:05;22.90;;;7.93;;
58338;SDS011;68636;52.704;6.536;2023-06-04T03:56:31;16.48;;;7.05;;
58338;SDS011;68636;52.704;6.536;2023-06-04T03:58:57;22.30;;;7.10;;
58338;SDS011;68636;52.704;6.536;2023-06-04T04:01:23;20.77;;;7.47;;
58338;SDS011;68636;52.704;6.536;2023-06-04T04:03:49;22.35;;;8.48;;
58338;SDS011;68636;52.704;6.536;2023-06-04T04:06:16;24.08;;;8.70;;
58338;SDS011;68636;52.704;6.536;2023-06-04T04:08:42;24.48;;;7.63;;
58338;SDS011;68636;52.704;6.536;2023-06-04T04:11:12;25.48;;;9.15;;
58338;SDS011;68636;52.704;6.536;2023-06-04T04:13:42;19.02;;;8.27;;
58338;SDS011;68636;52.704;6.536;2023-06-04T04:16:09;25.40;;;7.43;;
58338;SDS011;68636;52.704;6.536;2023-06-04T04:18:35;21.92;;;7.72;;
58338;SDS011;68636;52.704;6.536;2023-06-04T04:21:02;25.85;;;8.45;;
58338;SDS011;68636;52.704;6.536;2023-06-04T04:23:29;26.85;;;8.70;;
58338;SDS011;68636;52.704;6.536;2023-06-04T04:25:57;24.25;;;8.05;;
58338;SDS011;68636;52.704;6.536;2023-06-04T04:28:24;21.33;;;9.05;;
58338;SDS011;68636;52.704;6.536;2023-06-04T04:30:53;24.20;;;8.70;;
58338;SDS011;68636;52.704;6.536;2023-06-04T04:33:22;27.45;;;8.00;;
58338;SDS011;68636;52.704;6.536;2023-06-04T04:35:51;25.77;;;9.00;;
58338;SDS011;68636;52.704;6.536;2023-06-04T04:38:21;23.95;;;8.10;;
58338;SDS011;68636;52.704;6.536;2023-06-04T04:40:50;20.60;;;9.02;;
58338;SDS011;68636;52.704;6.536;2023-06-04T04:43:38;21.83;;;8.30;;
58338;SDS011;68636;52.704;6.536;2023-06-04T04:46:06;29.75;;;8.68;;
58338;SDS011;68636;52.704;6.536;2023-06-04T04:48:32;27.92;;;9.65;;
58338;SDS011;68636;52.704;6.536;2023-06-04T04:50:58;24.10;;;8.52;;
58338;SDS011;68636;52.704;6.536;2023-06-04T04:53:23;26.08;;;8.55;;
58338;SDS011;68636;52.704;6.536;2023-06-04T04:55:50;23.33;;;7.90;;
58338;SDS011;68636;52.704;6.536;2023-06-04T04:58:16;21.35;;;7.40;;
58338;SDS011;68636;52.704;6.536;2023-06-04T05:00:42;27.52;;;9.18;;
58338;SDS011;68636;52.704;6.536;2023-06-04T05:03:08;23.92;;;7.85;;
58338;SDS011;68636;52.704;6.536;2023-06-04T05:05:33;21.73;;;7.68;;
58338;SDS011;68636;52.704;6.536;2023-06-04T05:07:59;25.50;;;8.48;;
58338;SDS011;68636;52.704;6.536;2023-06-04T05:10:25;24.17;;;8.38;;
58338;SDS011;68636;52.704;6.536;2023-06-04T05:12:54;22.77;;;7.88;;
58338;SDS011;68636;52.704;6.536;2023-06-04T05:15:22;19.83;;;8.35;;
58338;SDS011;68636;52.704;6.536;2023-06-04T05:17:49;23.85;;;8.18;;
58338;SDS011;68636;52.704;6.536;2023-06-04T05:20:17;24.10;;;9.00;;
58338;SDS011;68636;52.704;6.536;2023-06-04T05:22:44;19.23;;;7.82;;
58338;SDS011;68636;52.704;6.536;2023-06-04T05:25:10;26.85;;;8.10;;
58338;SDS011;68636;52.704;6.536;2023-06-04T05:27:36;19.20;;;7.53;;
58338;SDS011;68636;52.704;6.536;2023-06-04T05:30:03;20.98;;;9.00;;
58338;SDS011;68636;52.704;6.536;2023-06-04T05:32:30;28.50;;;10.00;;
58338;SDS011;68636;52.704;6.536;2023-06-04T05:37:26;25.38;;;9.07;;
58338;SDS011;68636;52.704;6.536;2023-06-04T05:39:53;23.15;;;9.68;;
58338;SDS011;68636;52.704;6.536;2023-06-04T05:42:21;25.42;;;8.38;;
58338;SDS011;68636;52.704;6.536;2023-06-04T05:44:47;22.77;;;8.60;;
58338;SDS011;68636;52.704;6.536;2023-06-04T05:47:13;20.52;;;8.30;;
58338;SDS011;68636;52.704;6.536;2023-06-04T05:52:05;22.37;;;9.03;;
58338;SDS011;68636;52.704;6.536;2023-06-04T05:54:31;23.67;;;8.55;;
58338;SDS011;68636;52.704;6.536;2023-06-04T05:56:58;20.80;;;8.63;;
58338;SDS011;68636;52.704;6.536;2023-06-04T05:59:23;19.35;;;8.68;;
58338;SDS011;68636;52.704;6.536;2023-06-04T06:01:49;24.88;;;10.07;;
58338;SDS011;68636;52.704;6.536;2023-06-04T06:04:15;21.33;;;8.02;;
58338;SDS011;68636;52.704;6.536;2023-06-04T06:06:42;18.08;;;7.68;;
58338;SDS011;68636;52.704;6.536;2023-06-04T06:09:09;18.30;;;7.50;;
58338;SDS011;68636;52.704;6.536;2023-06-04T06:11:35;18.73;;;7.88;;
58338;SDS011;68636;52.704;6.536;2023-06-04T06:14:01;19.30;;;7.63;;
58338;SDS011;68636;52.704;6.536;2023-06-04T06:16:27;18.85;;;7.32;;
58338;SDS011;68636;52.704;6.536;2023-06-04T06:18:53;18.67;;;8.27;;
58338;SDS011;68636;52.704;6.536;2023-06-04T06:21:19;14.80;;;6.20;;
58338;SDS011;68636;52.704;6.536;2023-06-04T06:23:45;20.13;;;6.45;;
58338;SDS011;68636;52.704;6.536;2023-06-04T06:26:11;17.55;;;5.80;;
58338;SDS011;68636;52.704;6.536;2023-06-04T06:28:37;16.17;;;6.68;;
58338;SDS011;68636;52.704;6.536;2023-06-04T06:31:03;12.70;;;5.38;;
58338;SDS011;68636;52.704;6.536;2023-06-04T06:33:29;12.57;;;5.55;;
58338;SDS011;68636;52.704;6.536;2023-06-04T06:35:56;15.02;;;6.25;;
58338;SDS011;68636;52.704;6.536;2023-06-04T06:38:25;17.05;;;5.57;;
58338;SDS011;68636;52.704;6.536;2023-06-04T06:40:52;15.13;;;6.07;;
58338;SDS011;68636;52.704;6.536;2023-06-04T06:43:17;16.10;;;5.95;;
58338;SDS011;68636;52.704;6.536;2023-06-04T06:45:43;12.88;;;5.18;;
58338;SDS011;68636;52.704;6.536;2023-06-04T06:48:09;10.50;;;4.85;;
58338;SDS011;68636;52.704;6.536;2023-06-04T06:50:35;13.23;;;4.68;;
58338;SDS011;68636;52.704;6.536;2023-06-04T06:53:01;11.32;;;4.97;;
58338;SDS011;68636;52.704;6.536;2023-06-04T06:55:27;13.75;;;5.75;;
58338;SDS011;68636;52.704;6.536;2023-06-04T06:57:53;11.48;;;4.15;;
58338;SDS011;68636;52.704;6.536;2023-06-04T07:00:19;8.55;;;3.22;;
58338;SDS011;68636;52.704;6.536;2023-06-04T07:02:45;9.40;;;3.70;;
58338;SDS011;68636;52.704;6.536;2023-06-04T07:05:11;9.43;;;2.97;;
58338;SDS011;68636;52.704;6.536;2023-06-04T07:07:38;14.02;;;3.53;;
58338;SDS011;68636;52.704;6.536;2023-06-04T07:10:05;9.95;;;3.60;;
58338;SDS011;68636;52.704;6.536;2023-06-04T07:12:31;11.45;;;3.33;;
58338;SDS011;68636;52.704;6.536;2023-06-04T07:14:56;10.85;;;3.28;;
58338;SDS011;68636;52.704;6.536;2023-06-04T07:17:22;11.45;;;3.80;;
58338;SDS011;68636;52.704;6.536;2023-06-04T07:19:48;9.40;;;3.70;;
58338;SDS011;68636;52.704;6.536;2023-06-04T07:22:13;10.55;;;3.15;;
58338;SDS011;68636;52.704;6.536;2023-06-04T07:24:41;9.13;;;3.03;;
58338;SDS011;68636;52.704;6.536;2023-06-04T07:27:11;9.90;;;3.22;;
58338;SDS011;68636;52.704;6.536;2023-06-04T07:29:37;9.57;;;3.42;;
58338;SDS011;68636;52.704;6.536;2023-06-04T07:32:06;9.05;;;2.63;;
58338;SDS011;68636;52.704;6.536;2023-06-04T07:34:32;8.98;;;2.67;;
58338;SDS011;68636;52.704;6.536;2023-06-04T07:36:58;13.38;;;3.35;;
58338;SDS011;68636;52.704;6.536;2023-06-04T07:39:23;9.05;;;3.47;;
58338;SDS011;68636;52.704;6.536;2023-06-04T07:41:49;9.52;;;3.50;;
58338;SDS011;68636;52.704;6.536;2023-06-04T07:44:15;8.93;;;2.80;;
58338;SDS011;68636;52.704;6.536;2023-06-04T07:46:41;13.30;;;3.42;;
58338;SDS011;68636;52.704;6.536;2023-06-04T07:49:07;8.40;;;3.10;;
58338;SDS011;68636;52.704;6.536;2023-06-04T07:51:33;12.65;;;3.20;;
58338;SDS011;68636;52.704;6.536;2023-06-04T07:53:59;7.80;;;2.60;;
58338;SDS011;68636;52.704;6.536;2023-06-04T07:58:52;9.27;;;3.03;;
58338;SDS011;68636;52.704;6.536;2023-06-04T08:01:18;9.10;;;2.95;;
58338;SDS011;68636;52.704;6.536;2023-06-04T08:03:44;11.70;;;3.22;;
58338;SDS011;68636;52.704;6.536;2023-06-04T08:06:09;7.28;;;2.40;;
58338;SDS011;68636;52.704;6.536;2023-06-04T08:08:35;7.35;;;1.60;;
58338;SDS011;68636;52.704;6.536;2023-06-04T08:11:01;12.63;;;2.83;;
58338;SDS011;68636;52.704;6.536;2023-06-04T08:13:27;8.88;;;3.42;;
58338;SDS011;68636;52.704;6.536;2023-06-04T08:15:53;9.00;;;3.08;;
58338;SDS011;68636;52.704;6.536;2023-06-04T08:18:19;6.00;;;2.67;;
58338;SDS011;68636;52.704;6.536;2023-06-04T08:20:45;8.30;;;2.55;;
58338;SDS011;68636;52.704;6.536;2023-06-04T08:23:11;9.07;;;2.40;;
58338;SDS011;68636;52.704;6.536;2023-06-04T08:25:36;8.82;;;2.70;;
58338;SDS011;68636;52.704;6.536;2023-06-04T08:28:02;7.43;;;2.50;;
58338;SDS011;68636;52.704;6.536;2023-06-04T08:30:28;8.82;;;1.52;;
58338;SDS011;68636;52.704;6.536;2023-06-04T08:32:54;6.63;;;1.90;;
58338;SDS011;68636;52.704;6.536;2023-06-04T08:35:20;6.07;;;2.20;;
58338;SDS011;68636;52.704;6.536;2023-06-04T08:37:46;7.00;;;2.33;;
58338;SDS011;68636;52.704;6.536;2023-06-04T08:40:11;7.35;;;1.70;;
58338;SDS011;68636;52.704;6.536;2023-06-04T08:42:41;9.20;;;2.00;;
58338;SDS011;68636;52.704;6.536;2023-06-04T08:45:10;6.72;;;1.42;;
58338;SDS011;68636;52.704;6.536;2023-06-04T08:47:39;7.03;;;2.28;;
58338;SDS011;68636;52.704;6.536;2023-06-04T08:50:09;9.38;;;1.95;;
58338;SDS011;68636;52.704;6.536;2023-06-04T08:52:36;6.10;;;1.30;;
58338;SDS011;68636;52.704;6.536;2023-06-04T08:55:03;6.25;;;1.30;;
58338;SDS011;68636;52.704;6.536;2023-06-04T08:57:30;6.55;;;1.40;;
58338;SDS011;68636;52.704;6.536;2023-06-04T09:02:21;5.97;;;1.50;;
58338;SDS011;68636;52.704;6.536;2023-06-04T09:04:48;5.10;;;1.30;;
58338;SDS011;68636;52.704;6.536;2023-06-04T09:07:15;5.43;;;1.40;;
58338;SDS011;68636;52.704;6.536;2023-06-04T09:09:42;6.28;;;1.10;;
58338;SDS011;68636;52.704;6.536;2023-06-04T09:12:12;6.82;;;1.10;;
58338;SDS011;68636;52.704;6.536;2023-06-04T09:14:47;5.32;;;0.90;;
58338;SDS011;68636;52.704;6.536;2023-06-04T09:17:13;7.68;;;1.30;;
58338;SDS011;68636;52.704;6.536;2023-06-04T09:22:05;6.27;;;1.40;;
58338;SDS011;68636;52.704;6.536;2023-06-04T09:24:41;3.28;;;0.98;;
58338;SDS011;68636;52.704;6.536;2023-06-04T09:27:15;5.75;;;1.10;;
58338;SDS011;68636;52.704;6.536;2023-06-04T09:29:49;7.90;;;1.30;;
58338;SDS011;68636;52.704;6.536;2023-06-04T09:32:22;4.15;;;1.02;;
58338;SDS011;68636;52.704;6.536;2023-06-04T09:34:54;5.53;;;0.98;;
58338;SDS011;68636;52.704;6.536;2023-06-04T09:37:42;9.25;;;1.00;;
58338;SDS011;68636;52.704;6.536;2023-06-04T09:40:19;5.75;;;1.33;;
58338;SDS011;68636;52.704;6.536;2023-06-04T09:42:45;8.77;;;0.90;;
58338;SDS011;68636;52.704;6.536;2023-06-04T09:45:26;2.30;;;0.70;;
58338;SDS011;68636;52.704;6.536;2023-06-04T09:47:56;5.00;;;0.90;;
58338;SDS011;68636;52.704;6.536;2023-06-04T09:50:34;4.07;;;0.80;;
58338;SDS011;68636;52.704;6.536;2023-06-04T09:53:18;5.47;;;0.80;;
58338;SDS011;68636;52.704;6.536;2023-06-04T09:55:57;6.18;;;0.80;;
58338;SDS011;68636;52.704;6.536;2023-06-04T09:58:27;6.88;;;0.90;;
58338;SDS011;68636;52.704;6.536;2023-06-04T10:00:53;3.58;;;0.80;;
58338;SDS011;68636;52.704;6.536;2023-06-04T10:03:23;5.60;;;0.70;;
58338;SDS011;68636;52.704;6.536;2023-06-04T10:05:53;4.50;;;0.77;;
58338;SDS011;68636;52.704;6.536;2023-06-04T10:08:21;6.20;;;0.88;;
58338;SDS011;68636;52.704;6.536;2023-06-04T10:10:49;4.07;;;0.60;;
58338;SDS011;68636;52.704;6.536;2023-06-04T10:13:18;8.48;;;1.00;;
58338;SDS011;68636;52.704;6.536;2023-06-04T10:15:48;3.38;;;0.73;;
58338;SDS011;68636;52.704;6.536;2023-06-04T10:18:15;2.38;;;0.60;;
58338;SDS011;68636;52.704;6.536;2023-06-04T10:20:41;5.97;;;0.90;;
58338;SDS011;68636;52.704;6.536;2023-06-04T10:23:07;3.67;;;0.88;;
58338;SDS011;68636;52.704;6.536;2023-06-04T10:25:36;5.07;;;0.75;;
58338;SDS011;68636;52.704;6.536;2023-06-04T10:28:02;5.15;;;0.90;;
58338;SDS011;68636;52.704;6.536;2023-06-04T10:30:29;4.55;;;0.82;;
58338;SDS011;68636;52.704;6.536;2023-06-04T10:32:58;2.53;;;0.50;;
58338;SDS011;68636;52.704;6.536;2023-06-04T10:35:34;4.10;;;0.68;;
58338;SDS011;68636;52.704;6.536;2023-06-04T10:38:07;3.05;;;0.68;;
58338;SDS011;68636;52.704;6.536;2023-06-04T10:40:39;5.30;;;0.80;;
58338;SDS011;68636;52.704;6.536;2023-06-04T10:43:05;4.53;;;0.60;;
58338;SDS011;68636;52.704;6.536;2023-06-04T10:45:32;4.20;;;0.60;;
58338;SDS011;68636;52.704;6.536;2023-06-04T10:48:05;3.75;;;0.77;;
58338;SDS011;68636;52.704;6.536;2023-06-04T10:50:33;7.93;;;0.70;;
58338;SDS011;68636;52.704;6.536;2023-06-04T10:53:00;3.50;;;0.90;;
58338;SDS011;68636;52.704;6.536;2023-06-04T10:55:30;2.90;;;0.65;;
58338;SDS011;68636;52.704;6.536;2023-06-04T10:58:00;3.10;;;0.90;;
58338;SDS011;68636;52.704;6.536;2023-06-04T11:00:45;5.53;;;0.88;;
58338;SDS011;68636;52.704;6.536;2023-06-04T11:03:14;5.20;;;0.65;;
58338;SDS011;68636;52.704;6.536;2023-06-04T11:05:41;2.45;;;0.70;;
58338;SDS011;68636;52.704;6.536;2023-06-04T11:08:09;4.85;;;0.60;;
58338;SDS011;68636;52.704;6.536;2023-06-04T11:10:45;3.85;;;0.70;;
58338;SDS011;68636;52.704;6.536;2023-06-04T11:13:11;2.25;;;0.60;;
58338;SDS011;68636;52.704;6.536;2023-06-04T11:18:07;4.05;;;0.73;;
58338;SDS011;68636;52.704;6.536;2023-06-04T11:20:34;5.18;;;0.90;;
58338;SDS011;68636;52.704;6.536;2023-06-04T11:22:59;5.40;;;0.80;;
58338;SDS011;68636;52.704;6.536;2023-06-04T11:25:28;3.75;;;0.60;;
58338;SDS011;68636;52.704;6.536;2023-06-04T11:27:55;4.05;;;0.75;;
58338;SDS011;68636;52.704;6.536;2023-06-04T11:30:22;4.15;;;0.73;;
58338;SDS011;68636;52.704;6.536;2023-06-04T11:32:50;4.70;;;0.60;;
58338;SDS011;68636;52.704;6.536;2023-06-04T11:35:24;4.78;;;0.90;;
58338;SDS011;68636;52.704;6.536;2023-06-04T11:40:23;3.75;;;0.80;;
58338;SDS011;68636;52.704;6.536;2023-06-04T11:42:49;5.43;;;0.82;;
58338;SDS011;68636;52.704;6.536;2023-06-04T11:45:19;3.40;;;0.70;;
58338;SDS011;68636;52.704;6.536;2023-06-04T11:47:51;5.32;;;0.93;;
58338;SDS011;68636;52.704;6.536;2023-06-04T11:50:19;3.08;;;0.60;;
58338;SDS011;68636;52.704;6.536;2023-06-04T11:52:46;4.95;;;0.70;;
58338;SDS011;68636;52.704;6.536;2023-06-04T11:55:13;7.15;;;0.85;;
58338;SDS011;68636;52.704;6.536;2023-06-04T11:57:42;5.90;;;0.88;;
58338;SDS011;68636;52.704;6.536;2023-06-04T12:00:08;5.65;;;0.80;;
58338;SDS011;68636;52.704;6.536;2023-06-04T12:02:39;4.13;;;0.70;;
58338;SDS011;68636;52.704;6.536;2023-06-04T12:05:14;6.30;;;1.00;;
58338;SDS011;68636;52.704;6.536;2023-06-04T12:07:44;5.15;;;0.88;;
58338;SDS011;68636;52.704;6.536;2023-06-04T12:10:19;5.20;;;0.80;;
58338;SDS011;68636;52.704;6.536;2023-06-04T12:12:53;6.35;;;0.60;;
58338;SDS011;68636;52.704;6.536;2023-06-04T12:15:20;2.83;;;0.75;;
58338;SDS011;68636;52.704;6.536;2023-06-04T12:17:51;3.83;;;0.75;;
58338;SDS011;68636;52.704;6.536;2023-06-04T12:20:40;6.03;;;0.90;;
58338;SDS011;68636;52.704;6.536;2023-06-04T12:23:07;3.80;;;0.77;;
58338;SDS011;68636;52.704;6.536;2023-06-04T12:28:02;3.85;;;0.68;;
58338;SDS011;68636;52.704;6.536;2023-06-04T12:30:36;3.20;;;0.70;;
58338;SDS011;68636;52.704;6.536;2023-06-04T12:33:05;4.07;;;0.73;;
58338;SDS011;68636;52.704;6.536;2023-06-04T12:35:33;3.97;;;0.80;;
58338;SDS011;68636;52.704;6.536;2023-06-04T12:37:59;4.60;;;0.80;;
58338;SDS011;68636;52.704;6.536;2023-06-04T12:40:25;4.80;;;0.77;;
58338;SDS011;68636;52.704;6.536;2023-06-04T12:42:51;2.33;;;0.60;;
58338;SDS011;68636;52.704;6.536;2023-06-04T12:45:17;4.95;;;0.80;;
58338;SDS011;68636;52.704;6.536;2023-06-04T12:47:44;2.90;;;0.80;;
58338;SDS011;68636;52.704;6.536;2023-06-04T12:50:13;4.20;;;0.70;;
58338;SDS011;68636;52.704;6.536;2023-06-04T12:52:39;2.90;;;0.70;;
58338;SDS011;68636;52.704;6.536;2023-06-04T12:55:06;3.97;;;0.60;;
58338;SDS011;68636;52.704;6.536;2023-06-04T12:57:33;3.20;;;0.60;;
58338;SDS011;68636;52.704;6.536;2023-06-04T12:59:58;3.67;;;0.60;;
58338;SDS011;68636;52.704;6.536;2023-06-04T13:02:24;3.97;;;0.67;;
58338;SDS011;68636;52.704;6.536;2023-06-04T13:04:50;1.77;;;0.53;;
58338;SDS011;68636;52.704;6.536;2023-06-04T13:07:19;4.13;;;0.70;;
58338;SDS011;68636;52.704;6.536;2023-06-04T13:09:45;2.63;;;0.53;;
58338;SDS011;68636;52.704;6.536;2023-06-04T13:12:11;3.73;;;0.80;;
58338;SDS011;68636;52.704;6.536;2023-06-04T13:14:36;1.93;;;0.70;;
58338;SDS011;68636;52.704;6.536;2023-06-04T13:17:02;3.13;;;0.60;;
58338;SDS011;68636;52.704;6.536;2023-06-04T13:19:28;3.87;;;0.93;;
58338;SDS011;68636;52.704;6.536;2023-06-04T13:21:54;4.00;;;0.60;;
58338;SDS011;68636;52.704;6.536;2023-06-04T13:24:20;3.20;;;0.50;;
58338;SDS011;68636;52.704;6.536;2023-06-04T13:26:45;9.07;;;0.77;;
58338;SDS011;68636;52.704;6.536;2023-06-04T13:29:11;2.67;;;0.60;;
58338;SDS011;68636;52.704;6.536;2023-06-04T13:31:38;3.33;;;0.70;;
58338;SDS011;68636;52.704;6.536;2023-06-04T13:34:04;2.17;;;0.60;;
58338;SDS011;68636;52.704;6.536;2023-06-04T13:36:30;5.30;;;0.70;;
58338;SDS011;68636;52.704;6.536;2023-06-04T13:38:56;4.07;;;0.60;;
58338;SDS011;68636;52.704;6.536;2023-06-04T13:41:22;2.07;;;0.60;;
58338;SDS011;68636;52.704;6.536;2023-06-04T13:43:48;4.63;;;0.98;;
58338;SDS011;68636;52.704;6.536;2023-06-04T13:46:14;3.08;;;0.60;;
58338;SDS011;68636;52.704;6.536;2023-06-04T13:51:06;2.10;;;0.60;;
58338;SDS011;68636;52.704;6.536;2023-06-04T13:53:32;2.78;;;0.57;;
58338;SDS011;68636;52.704;6.536;2023-06-04T13:55:58;5.20;;;0.70;;
58338;SDS011;68636;52.704;6.536;2023-06-04T13:58:27;5.80;;;0.87;;
58338;SDS011;68636;52.704;6.536;2023-06-04T14:00:53;3.55;;;0.70;;
58338;SDS011;68636;52.704;6.536;2023-06-04T14:03:19;7.57;;;0.70;;
58338;SDS011;68636;52.704;6.536;2023-06-04T14:05:44;1.80;;;0.60;;
58338;SDS011;68636;52.704;6.536;2023-06-04T14:08:10;3.13;;;0.67;;
58338;SDS011;68636;52.704;6.536;2023-06-04T14:10:37;3.15;;;0.70;;
58338;SDS011;68636;52.704;6.536;2023-06-04T14:13:06;3.35;;;0.70;;
58338;SDS011;68636;52.704;6.536;2023-06-04T14:15:32;3.67;;;0.77;;
58338;SDS011;68636;52.704;6.536;2023-06-04T14:17:58;4.57;;;0.80;;
58338;SDS011;68636;52.704;6.536;2023-06-04T14:20:25;2.30;;;0.60;;
58338;SDS011;68636;52.704;6.536;2023-06-04T14:22:50;2.07;;;0.57;;
58338;SDS011;68636;52.704;6.536;2023-06-04T14:25:16;3.83;;;0.60;;
58338;SDS011;68636;52.704;6.536;2023-06-04T14:27:42;4.97;;;0.60;;
58338;SDS011;68636;52.704;6.536;2023-06-04T14:30:08;6.72;;;0.70;;
58338;SDS011;68636;52.704;6.536;2023-06-04T14:32:35;6.05;;;0.80;;
58338;SDS011;68636;52.704;6.536;2023-06-04T14:35:01;3.38;;;0.70;;
58338;SDS011;68636;52.704;6.536;2023-06-04T14:37:27;18.47;;;8.30;;
58338;SDS011;68636;52.704;6.536;2023-06-04T14:39:53;4.27;;;0.90;;
58338;SDS011;68636;52.704;6.536;2023-06-04T14:42:18;4.77;;;0.80;;
58338;SDS011;68636;52.704;6.536;2023-06-04T14:44:45;4.67;;;0.60;;
58338;SDS011;68636;52.704;6.536;2023-06-04T14:47:11;4.45;;;0.90;;
58338;SDS011;68636;52.704;6.536;2023-06-04T14:49:36;3.70;;;0.77;;
58338;SDS011;68636;52.704;6.536;2023-06-04T14:52:02;2.53;;;0.80;;
58338;SDS011;68636;52.704;6.536;2023-06-04T14:54:28;3.45;;;0.90;;
58338;SDS011;68636;52.704;6.536;2023-06-04T14:56:55;4.78;;;0.82;;
58338;SDS011;68636;52.704;6.536;2023-06-04T14:59:20;4.57;;;1.00;;
58338;SDS011;68636;52.704;6.536;2023-06-04T15:01:46;5.03;;;0.80;;
58338;SDS011;68636;52.704;6.536;2023-06-04T15:04:12;4.43;;;0.80;;
58338;SDS011;68636;52.704;6.536;2023-06-04T15:06:38;2.20;;;0.63;;
58338;SDS011;68636;52.704;6.536;2023-06-04T15:09:04;4.57;;;0.70;;
58338;SDS011;68636;52.704;6.536;2023-06-04T15:11:30;3.85;;;0.88;;
58338;SDS011;68636;52.704;6.536;2023-06-04T15:13:56;5.93;;;0.80;;
58338;SDS011;68636;52.704;6.536;2023-06-04T15:16:23;3.20;;;0.83;;